sensor_id;sensor_type;location;lat;lon;timestamp;P1;durP1;ratioP1;P2;durP2;ratioP2
1460;SDS011;724;49.910;12.530;2023-08-06T00:00:59;11.47;;;10.87;;
1460;SDS011;724;49.910;12.530;2023-08-06T00:03:25;11.60;;;11.00;;
1460;SDS011;724;49.910;12.530;2023-08-06T00:05:52;11.70;;;11.10;;
1460;SDS011;724;49.910;12.530;2023-08-06T00:08:19;12.20;;;11.60;;
1460;SDS011;724;49.910;12.530;2023-08-06T00:10:47;12.10;;;11.50;;
1460;SDS011;724;49.910;12.530;2023-08-06T00:13:15;12.30;;;11.70;;
1460;SDS011;724;49.910;12.530;2023-08-06T00:15:42;12.70;;;12.00;;
1460;SDS011;724;49.910;12.530;2023-08-06T00:18:09;12.20;;;11.60;;
1460;SDS011;724;49.910;12.530;2023-08-06T00:20:38;12.30;;;11.70;;
1460;SDS011;724;49.910;12.530;2023-08-06T00:23:06;12.70;;;12.00;;
1460;SDS011;724;49.910;12.530;2023-08-06T00:25:33;12.70;;;12.00;;
1460;SDS011;724;49.910;12.530;2023-08-06T00:28:00;12.80;;;12.10;;
1460;SDS011;724;49.910;12.530;2023-08-06T00:30:28;12.83;;;12.13;;
1460;SDS011;724;49.910;12.530;2023-08-06T00:32:54;12.20;;;11.60;;
1460;SDS011;724;49.910;12.530;2023-08-06T00:35:24;12.00;;;11.40;;
1460;SDS011;724;49.910;12.530;2023-08-06T00:37:50;12.20;;;11.60;;
1460;SDS011;724;49.910;12.530;2023-08-06T00:40:19;11.93;;;11.33;;
1460;SDS011;724;49.910;12.530;2023-08-06T00:42:47;12.30;;;11.70;;
1460;SDS011;724;49.910;12.530;2023-08-06T00:45:14;11.97;;;11.37;;
1460;SDS011;724;49.910;12.530;2023-08-06T00:47:42;12.30;;;11.70;;
1460;SDS011;724;49.910;12.530;2023-08-06T00:50:10;12.47;;;11.87;;
1460;SDS011;724;49.910;12.530;2023-08-06T00:52:37;11.93;;;11.33;;
1460;SDS011;724;49.910;12.530;2023-08-06T00:55:04;11.20;;;10.60;;
1460;SDS011;724;49.910;12.530;2023-08-06T00:57:32;11.00;;;10.40;;
1460;SDS011;724;49.910;12.530;2023-08-06T00:59:59;11.10;;;10.50;;
1460;SDS011;724;49.910;12.530;2023-08-06T01:02:27;11.17;;;10.57;;
1460;SDS011;724;49.910;12.530;2023-08-06T01:04:55;10.90;;;10.30;;
1460;SDS011;724;49.910;12.530;2023-08-06T01:07:26;10.30;;;9.80;;
1460;SDS011;724;49.910;12.530;2023-08-06T01:10:10;10.90;;;10.30;;
1460;SDS011;724;49.910;12.530;2023-08-06T01:12:48;11.00;;;10.40;;
1460;SDS011;724;49.910;12.530;2023-08-06T01:15:27;11.13;;;10.53;;
1460;SDS011;724;49.910;12.530;2023-08-06T01:17:57;11.50;;;10.90;;
1460;SDS011;724;49.910;12.530;2023-08-06T01:20:28;11.30;;;10.70;;
1460;SDS011;724;49.910;12.530;2023-08-06T01:22:55;11.30;;;10.70;;
1460;SDS011;724;49.910;12.530;2023-08-06T01:25:22;11.40;;;10.80;;
1460;SDS011;724;49.910;12.530;2023-08-06T01:27:56;11.57;;;10.97;;
1460;SDS011;724;49.910;12.530;2023-08-06T01:30:30;11.50;;;10.90;;
1460;SDS011;724;49.910;12.530;2023-08-06T01:33:01;11.83;;;11.23;;
1460;SDS011;724;49.910;12.530;2023-08-06T01:35:32;12.03;;;11.43;;
1460;SDS011;724;49.910;12.530;2023-08-06T02:12:48;12.20;;;11.60;;
1460;SDS011;724;49.910;12.530;2023-08-06T02:15:15;11.90;;;11.30;;
1460;SDS011;724;49.910;12.530;2023-08-06T02:17:42;11.70;;;11.10;;
1460;SDS011;724;49.910;12.530;2023-08-06T02:20:09;11.90;;;11.30;;
1460;SDS011;724;49.910;12.530;2023-08-06T02:22:36;11.63;;;11.03;;
1460;SDS011;724;49.910;12.530;2023-08-06T02:25:03;11.70;;;11.10;;
1460;SDS011;724;49.910;12.530;2023-08-06T02:27:30;11.60;;;11.00;;
1460;SDS011;724;49.910;12.530;2023-08-06T02:29:58;11.27;;;10.67;;
1460;SDS011;724;49.910;12.530;2023-08-06T02:32:25;10.70;;;10.10;;
1460;SDS011;724;49.910;12.530;2023-08-06T02:34:51;10.70;;;10.10;;
1460;SDS011;724;49.910;12.530;2023-08-06T02:37:18;10.23;;;9.73;;
1460;SDS011;724;49.910;12.530;2023-08-06T02:39:45;10.10;;;9.60;;
1460;SDS011;724;49.910;12.530;2023-08-06T02:42:12;9.70;;;9.20;;
1460;SDS011;724;49.910;12.530;2023-08-06T02:44:39;9.40;;;8.90;;
1460;SDS011;724;49.910;12.530;2023-08-06T02:47:07;8.10;;;7.70;;
1460;SDS011;724;49.910;12.530;2023-08-06T02:49:33;8.03;;;7.63;;
1460;SDS011;724;49.910;12.530;2023-08-06T02:52:00;8.60;;;8.10;;
1460;SDS011;724;49.910;12.530;2023-08-06T02:54:27;9.57;;;9.07;;
1460;SDS011;724;49.910;12.530;2023-08-06T02:56:54;9.90;;;9.40;;
1460;SDS011;724;49.910;12.530;2023-08-06T02:59:20;11.00;;;10.40;;
1460;SDS011;724;49.910;12.530;2023-08-06T03:01:47;11.60;;;11.00;;
1460;SDS011;724;49.910;12.530;2023-08-06T03:04:15;11.70;;;11.10;;
1460;SDS011;724;49.910;12.530;2023-08-06T03:06:43;11.30;;;10.70;;
1460;SDS011;724;49.910;12.530;2023-08-06T03:09:09;11.47;;;10.87;;
1460;SDS011;724;49.910;12.530;2023-08-06T03:11:37;11.80;;;11.20;;
1460;SDS011;724;49.910;12.530;2023-08-06T03:14:03;11.97;;;11.37;;
1460;SDS011;724;49.910;12.530;2023-08-06T03:16:30;12.00;;;11.40;;
1460;SDS011;724;49.910;12.530;2023-08-06T03:18:57;11.30;;;10.70;;
1460;SDS011;724;49.910;12.530;2023-08-06T03:21:25;11.60;;;11.00;;
1460;SDS011;724;49.910;12.530;2023-08-06T03:23:52;12.50;;;11.90;;
1460;SDS011;724;49.910;12.530;2023-08-06T03:26:18;12.90;;;12.20;;
1460;SDS011;724;49.910;12.530;2023-08-06T03:28:45;12.70;;;12.00;;
1460;SDS011;724;49.910;12.530;2023-08-06T03:31:12;12.90;;;12.20;;
1460;SDS011;724;49.910;12.530;2023-08-06T03:33:39;12.90;;;12.20;;
1460;SDS011;724;49.910;12.530;2023-08-06T03:36:06;12.77;;;12.07;;
1460;SDS011;724;49.910;12.530;2023-08-06T03:38:34;12.20;;;11.60;;
1460;SDS011;724;49.910;12.530;2023-08-06T03:41:01;12.50;;;11.90;;
1460;SDS011;724;49.910;12.530;2023-08-06T03:43:28;12.40;;;11.80;;
1460;SDS011;724;49.910;12.530;2023-08-06T03:45:54;12.00;;;11.40;;
1460;SDS011;724;49.910;12.530;2023-08-06T03:48:21;12.40;;;11.80;;
1460;SDS011;724;49.910;12.530;2023-08-06T03:50:48;13.30;;;12.60;;
1460;SDS011;724;49.910;12.530;2023-08-06T03:53:15;13.20;;;12.50;;
1460;SDS011;724;49.910;12.530;2023-08-06T03:55:43;13.40;;;12.70;;
1460;SDS011;724;49.910;12.530;2023-08-06T03:58:10;13.03;;;12.33;;
1460;SDS011;724;49.910;12.530;2023-08-06T04:00:36;13.53;;;12.83;;
1460;SDS011;724;49.910;12.530;2023-08-06T04:03:03;13.00;;;12.30;;
1460;SDS011;724;49.910;12.530;2023-08-06T04:05:30;12.90;;;12.20;;
1460;SDS011;724;49.910;12.530;2023-08-06T04:07:57;11.83;;;11.23;;
1460;SDS011;724;49.910;12.530;2023-08-06T04:10:24;11.80;;;11.20;;
1460;SDS011;724;49.910;12.530;2023-08-06T04:12:52;11.70;;;11.10;;
1460;SDS011;724;49.910;12.530;2023-08-06T04:15:19;11.43;;;10.83;;
1460;SDS011;724;49.910;12.530;2023-08-06T04:17:46;11.20;;;10.60;;
1460;SDS011;724;49.910;12.530;2023-08-06T04:20:13;10.40;;;9.90;;
1460;SDS011;724;49.910;12.530;2023-08-06T04:22:39;9.90;;;9.40;;
1460;SDS011;724;49.910;12.530;2023-08-06T04:25:06;9.10;;;8.60;;
1460;SDS011;724;49.910;12.530;2023-08-06T04:27:34;8.10;;;7.70;;
1460;SDS011;724;49.910;12.530;2023-08-06T04:30:03;7.60;;;7.20;;
1460;SDS011;724;49.910;12.530;2023-08-06T04:32:31;6.20;;;5.90;;
1460;SDS011;724;49.910;12.530;2023-08-06T04:34:58;5.20;;;4.90;;
1460;SDS011;724;49.910;12.530;2023-08-06T04:37:25;4.60;;;4.30;;
1460;SDS011;724;49.910;12.530;2023-08-06T04:39:52;3.60;;;3.40;;
1460;SDS011;724;49.910;12.530;2023-08-06T04:42:18;2.80;;;2.60;;
1460;SDS011;724;49.910;12.530;2023-08-06T04:44:45;2.20;;;2.00;;
1460;SDS011;724;49.910;12.530;2023-08-06T04:47:13;1.30;;;1.20;;
1460;SDS011;724;49.910;12.530;2023-08-06T04:49:40;0.80;;;0.70;;
1460;SDS011;724;49.910;12.530;2023-08-06T04:52:07;0.60;;;0.50;;
1460;SDS011;724;49.910;12.530;2023-08-06T04:54:33;0.40;;;0.30;;
1460;SDS011;724;49.910;12.530;2023-08-06T04:57:00;0.40;;;0.30;;
1460;SDS011;724;49.910;12.530;2023-08-06T04:59:27;0.30;;;0.20;;
1460;SDS011;724;49.910;12.530;2023-08-06T05:01:54;0.30;;;0.20;;
1460;SDS011;724;49.910;12.530;2023-08-06T05:04:22;0.30;;;0.20;;
1460;SDS011;724;49.910;12.530;2023-08-06T05:06:48;0.30;;;0.20;;
1460;SDS011;724;49.910;12.530;2023-08-06T05:09:15;0.30;;;0.20;;
1460;SDS011;724;49.910;12.530;2023-08-06T05:11:42;0.30;;;0.20;;
1460;SDS011;724;49.910;12.530;2023-08-06T05:14:09;0.20;;;0.10;;
1460;SDS011;724;49.910;12.530;2023-08-06T05:16:35;0.20;;;0.10;;
1460;SDS011;724;49.910;12.530;2023-08-06T05:19:02;0.30;;;0.20;;
1460;SDS011;724;49.910;12.530;2023-08-06T05:21:30;0.30;;;0.20;;
1460;SDS011;724;49.910;12.530;2023-08-06T05:23:57;0.30;;;0.20;;
1460;SDS011;724;49.910;12.530;2023-08-06T05:26:24;0.37;;;0.27;;
1460;SDS011;724;49.910;12.530;2023-08-06T05:28:51;0.30;;;0.20;;
1460;SDS011;724;49.910;12.530;2023-08-06T05:31:18;0.50;;;0.40;;
1460;SDS011;724;49.910;12.530;2023-08-06T05:33:45;0.50;;;0.40;;
1460;SDS011;724;49.910;12.530;2023-08-06T05:36:12;0.70;;;0.60;;
1460;SDS011;724;49.910;12.530;2023-08-06T05:38:40;0.80;;;0.70;;
1460;SDS011;724;49.910;12.530;2023-08-06T05:41:06;0.80;;;0.70;;
1460;SDS011;724;49.910;12.530;2023-08-06T05:43:33;0.80;;;0.70;;
1460;SDS011;724;49.910;12.530;2023-08-06T05:46:00;0.80;;;0.70;;
1460;SDS011;724;49.910;12.530;2023-08-06T05:48:27;0.70;;;0.60;;
1460;SDS011;724;49.910;12.530;2023-08-06T05:50:53;0.60;;;0.50;;
1460;SDS011;724;49.910;12.530;2023-08-06T05:53:20;0.60;;;0.50;;
1460;SDS011;724;49.910;12.530;2023-08-06T05:55:48;0.50;;;0.40;;
1460;SDS011;724;49.910;12.530;2023-08-06T05:58:15;0.50;;;0.40;;
1460;SDS011;724;49.910;12.530;2023-08-06T06:00:42;0.50;;;0.40;;
1460;SDS011;724;49.910;12.530;2023-08-06T06:03:09;0.50;;;0.40;;
1460;SDS011;724;49.910;12.530;2023-08-06T06:05:37;0.50;;;0.40;;
1460;SDS011;724;49.910;12.530;2023-08-06T06:08:04;0.73;;;0.63;;
1460;SDS011;724;49.910;12.530;2023-08-06T06:10:31;0.80;;;0.70;;
1460;SDS011;724;49.910;12.530;2023-08-06T06:12:59;1.00;;;0.90;;
1460;SDS011;724;49.910;12.530;2023-08-06T06:15:25;1.10;;;1.00;;
1460;SDS011;724;49.910;12.530;2023-08-06T06:17:52;1.10;;;1.00;;
1460;SDS011;724;49.910;12.530;2023-08-06T06:20:19;1.10;;;1.00;;
1460;SDS011;724;49.910;12.530;2023-08-06T06:22:46;1.20;;;1.10;;
1460;SDS011;724;49.910;12.530;2023-08-06T06:25:12;1.00;;;0.90;;
1460;SDS011;724;49.910;12.530;2023-08-06T06:27:39;0.90;;;0.80;;
1460;SDS011;724;49.910;12.530;2023-08-06T06:30:08;0.70;;;0.60;;
1460;SDS011;724;49.910;12.530;2023-08-06T06:32:37;0.70;;;0.60;;
1460;SDS011;724;49.910;12.530;2023-08-06T06:35:05;0.70;;;0.60;;
1460;SDS011;724;49.910;12.530;2023-08-06T06:37:32;0.57;;;0.47;;
1460;SDS011;724;49.910;12.530;2023-08-06T06:39:59;0.50;;;0.40;;
1460;SDS011;724;49.910;12.530;2023-08-06T06:42:25;0.50;;;0.40;;
1460;SDS011;724;49.910;12.530;2023-08-06T06:44:52;0.50;;;0.40;;
1460;SDS011;724;49.910;12.530;2023-08-06T06:47:20;0.52;;;0.43;;
1460;SDS011;724;49.910;12.530;2023-08-06T06:49:47;0.60;;;0.50;;
1460;SDS011;724;49.910;12.530;2023-08-06T06:52:14;0.50;;;0.40;;
1460;SDS011;724;49.910;12.530;2023-08-06T06:54:40;0.40;;;0.30;;
1460;SDS011;724;49.910;12.530;2023-08-06T06:57:07;0.50;;;0.40;;
1460;SDS011;724;49.910;12.530;2023-08-06T06:59:34;0.57;;;0.47;;
1460;SDS011;724;49.910;12.530;2023-08-06T07:02:01;0.60;;;0.50;;
1460;SDS011;724;49.910;12.530;2023-08-06T07:04:29;0.80;;;0.70;;
1460;SDS011;724;49.910;12.530;2023-08-06T07:06:55;1.00;;;0.90;;
1460;SDS011;724;49.910;12.530;2023-08-06T07:09:22;1.10;;;1.00;;
1460;SDS011;724;49.910;12.530;2023-08-06T07:11:49;1.03;;;0.93;;
1460;SDS011;724;49.910;12.530;2023-08-06T07:14:16;1.40;;;1.30;;
1460;SDS011;724;49.910;12.530;2023-08-06T07:16:43;1.50;;;1.40;;
1460;SDS011;724;49.910;12.530;2023-08-06T07:19:10;1.50;;;1.40;;
1460;SDS011;724;49.910;12.530;2023-08-06T07:21:38;1.60;;;1.50;;
1460;SDS011;724;49.910;12.530;2023-08-06T07:24:05;1.90;;;1.80;;
1460;SDS011;724;49.910;12.530;2023-08-06T07:26:31;1.80;;;1.70;;
1460;SDS011;724;49.910;12.530;2023-08-06T07:28:58;2.30;;;2.10;;
1460;SDS011;724;49.910;12.530;2023-08-06T07:31:25;2.20;;;2.00;;
1460;SDS011;724;49.910;12.530;2023-08-06T07:33:52;1.90;;;1.80;;
1460;SDS011;724;49.910;12.530;2023-08-06T07:36:19;2.00;;;1.90;;
1460;SDS011;724;49.910;12.530;2023-08-06T07:38:47;2.40;;;2.20;;
1460;SDS011;724;49.910;12.530;2023-08-06T07:41:20;2.40;;;2.20;;
1460;SDS011;724;49.910;12.530;2023-08-06T07:43:47;2.70;;;2.50;;
1460;SDS011;724;49.910;12.530;2023-08-06T07:46:14;2.67;;;2.47;;
1460;SDS011;724;49.910;12.530;2023-08-06T07:48:41;2.80;;;2.60;;
1460;SDS011;724;49.910;12.530;2023-08-06T07:51:08;3.20;;;3.00;;
1460;SDS011;724;49.910;12.530;2023-08-06T07:53:35;3.20;;;3.00;;
1460;SDS011;724;49.910;12.530;2023-08-06T07:56:03;3.70;;;3.50;;
1460;SDS011;724;49.910;12.530;2023-08-06T07:58:30;4.03;;;3.83;;
1460;SDS011;724;49.910;12.530;2023-08-06T08:00:57;3.80;;;3.60;;
1460;SDS011;724;49.910;12.530;2023-08-06T08:03:23;3.70;;;3.50;;
1460;SDS011;724;49.910;12.530;2023-08-06T08:05:50;3.93;;;3.73;;
1460;SDS011;724;49.910;12.530;2023-08-06T08:08:22;4.00;;;3.80;;
1460;SDS011;724;49.910;12.530;2023-08-06T08:10:49;4.50;;;4.20;;
1460;SDS011;724;49.910;12.530;2023-08-06T08:13:17;5.20;;;4.90;;
1460;SDS011;724;49.910;12.530;2023-08-06T08:15:44;5.57;;;5.27;;
1460;SDS011;724;49.910;12.530;2023-08-06T08:18:10;5.10;;;4.80;;
1460;SDS011;724;49.910;12.530;2023-08-06T08:20:37;4.90;;;4.60;;
1460;SDS011;724;49.910;12.530;2023-08-06T08:23:04;5.17;;;4.87;;
1460;SDS011;724;49.910;12.530;2023-08-06T08:25:31;5.40;;;5.10;;
1460;SDS011;724;49.910;12.530;2023-08-06T08:27:59;5.70;;;5.40;;
1460;SDS011;724;49.910;12.530;2023-08-06T08:30:27;5.70;;;5.40;;
1460;SDS011;724;49.910;12.530;2023-08-06T08:32:59;5.90;;;5.60;;
1460;SDS011;724;49.910;12.530;2023-08-06T08:35:26;5.60;;;5.30;;
1460;SDS011;724;49.910;12.530;2023-08-06T08:37:53;5.40;;;5.10;;
1460;SDS011;724;49.910;12.530;2023-08-06T08:40:20;5.00;;;4.70;;
1460;SDS011;724;49.910;12.530;2023-08-06T08:42:59;5.40;;;5.10;;
1460;SDS011;724;49.910;12.530;2023-08-06T08:45:28;6.10;;;5.80;;
1460;SDS011;724;49.910;12.530;2023-08-06T08:47:56;6.67;;;6.27;;
1460;SDS011;724;49.910;12.530;2023-08-06T08:50:23;6.70;;;6.30;;
1460;SDS011;724;49.910;12.530;2023-08-06T08:52:50;6.80;;;6.40;;
1460;SDS011;724;49.910;12.530;2023-08-06T08:55:17;7.00;;;6.60;;
1460;SDS011;724;49.910;12.530;2023-08-06T08:57:46;7.10;;;6.70;;
1460;SDS011;724;49.910;12.530;2023-08-06T09:00:13;7.00;;;6.60;;
1460;SDS011;724;49.910;12.530;2023-08-06T09:02:41;6.80;;;6.40;;
1460;SDS011;724;49.910;12.530;2023-08-06T09:05:08;6.80;;;6.40;;
1460;SDS011;724;49.910;12.530;2023-08-06T09:07:38;7.10;;;6.70;;
1460;SDS011;724;49.910;12.530;2023-08-06T09:10:10;7.10;;;6.70;;
1460;SDS011;724;49.910;12.530;2023-08-06T09:12:40;6.67;;;6.27;;
1460;SDS011;724;49.910;12.530;2023-08-06T09:15:08;6.40;;;6.00;;
1460;SDS011;724;49.910;12.530;2023-08-06T09:17:35;6.07;;;5.77;;
1460;SDS011;724;49.910;12.530;2023-08-06T09:20:10;6.40;;;6.00;;
1460;SDS011;724;49.910;12.530;2023-08-06T09:22:38;6.90;;;6.50;;
1460;SDS011;724;49.910;12.530;2023-08-06T09:25:06;7.23;;;6.83;;
1460;SDS011;724;49.910;12.530;2023-08-06T09:27:35;8.20;;;7.80;;
1460;SDS011;724;49.910;12.530;2023-08-06T09:30:03;8.70;;;8.20;;
1460;SDS011;724;49.910;12.530;2023-08-06T09:32:38;9.50;;;9.00;;
1460;SDS011;724;49.910;12.530;2023-08-06T09:35:14;10.90;;;10.30;;
1460;SDS011;724;49.910;12.530;2023-08-06T09:37:42;10.60;;;10.00;;
1460;SDS011;724;49.910;12.530;2023-08-06T09:40:23;11.10;;;10.50;;
1460;SDS011;724;49.910;12.530;2023-08-06T09:42:51;11.40;;;10.80;;
1460;SDS011;724;49.910;12.530;2023-08-06T09:45:20;12.10;;;11.50;;
1460;SDS011;724;49.910;12.530;2023-08-06T09:47:48;12.07;;;11.47;;
1460;SDS011;724;49.910;12.530;2023-08-06T09:50:25;12.50;;;11.90;;
1460;SDS011;724;49.910;12.530;2023-08-06T09:52:55;13.60;;;12.90;;
1460;SDS011;724;49.910;12.530;2023-08-06T09:55:23;14.30;;;13.60;;
1460;SDS011;724;49.910;12.530;2023-08-06T09:57:51;14.50;;;13.80;;
1460;SDS011;724;49.910;12.530;2023-08-06T10:00:19;13.33;;;12.63;;
1460;SDS011;724;49.910;12.530;2023-08-06T10:02:47;14.27;;;13.57;;
1460;SDS011;724;49.910;12.530;2023-08-06T10:05:16;14.10;;;13.40;;
1460;SDS011;724;49.910;12.530;2023-08-06T10:07:45;13.80;;;13.10;;
1460;SDS011;724;49.910;12.530;2023-08-06T10:10:15;14.20;;;13.50;;
1460;SDS011;724;49.910;12.530;2023-08-06T10:12:43;13.77;;;13.07;;
1460;SDS011;724;49.910;12.530;2023-08-06T10:15:15;13.90;;;13.20;;
1460;SDS011;724;49.910;12.530;2023-08-06T10:17:48;14.30;;;13.60;;
1460;SDS011;724;49.910;12.530;2023-08-06T10:20:17;13.80;;;13.10;;
1460;SDS011;724;49.910;12.530;2023-08-06T10:22:47;13.90;;;13.20;;
1460;SDS011;724;49.910;12.530;2023-08-06T10:25:26;13.70;;;13.00;;
1460;SDS011;724;49.910;12.530;2023-08-06T10:27:57;13.13;;;12.43;;
1460;SDS011;724;49.910;12.530;2023-08-06T10:30:24;13.23;;;12.53;;
1460;SDS011;724;49.910;12.530;2023-08-06T10:32:53;13.03;;;12.33;;
1460;SDS011;724;49.910;12.530;2023-08-06T10:35:32;12.73;;;12.03;;
1460;SDS011;724;49.910;12.530;2023-08-06T10:38:06;12.00;;;11.40;;
1460;SDS011;724;49.910;12.530;2023-08-06T10:40:35;11.70;;;11.10;;
1460;SDS011;724;49.910;12.530;2023-08-06T10:43:03;11.20;;;10.60;;
1460;SDS011;724;49.910;12.530;2023-08-06T10:45:33;11.40;;;10.80;;
1460;SDS011;724;49.910;12.530;2023-08-06T10:48:01;11.73;;;11.13;;
1460;SDS011;724;49.910;12.530;2023-08-06T10:50:28;13.30;;;12.60;;
1460;SDS011;724;49.910;12.530;2023-08-06T10:52:56;13.50;;;12.80;;
1460;SDS011;724;49.910;12.530;2023-08-06T10:55:26;13.80;;;13.10;;
1460;SDS011;724;49.910;12.530;2023-08-06T10:57:54;14.10;;;13.40;;
1460;SDS011;724;49.910;12.530;2023-08-06T11:00:22;14.40;;;13.70;;
1460;SDS011;724;49.910;12.530;2023-08-06T11:02:49;14.20;;;13.50;;
1460;SDS011;724;49.910;12.530;2023-08-06T11:05:17;14.30;;;13.60;;
1460;SDS011;724;49.910;12.530;2023-08-06T11:07:44;13.90;;;13.20;;
1460;SDS011;724;49.910;12.530;2023-08-06T11:10:13;13.97;;;13.27;;
1460;SDS011;724;49.910;12.530;2023-08-06T11:12:41;13.97;;;13.27;;
1460;SDS011;724;49.910;12.530;2023-08-06T11:15:09;13.70;;;13.00;;
1460;SDS011;724;49.910;12.530;2023-08-06T11:17:36;13.90;;;13.20;;
1460;SDS011;724;49.910;12.530;2023-08-06T11:20:05;13.67;;;12.97;;
1460;SDS011;724;49.910;12.530;2023-08-06T11:22:33;13.30;;;12.60;;
1460;SDS011;724;49.910;12.530;2023-08-06T11:25:01;13.50;;;12.80;;
1460;SDS011;724;49.910;12.530;2023-08-06T11:27:28;13.20;;;12.50;;
1460;SDS011;724;49.910;12.530;2023-08-06T11:29:57;13.10;;;12.40;;
1460;SDS011;724;49.910;12.530;2023-08-06T11:32:23;13.30;;;12.60;;
1460;SDS011;724;49.910;12.530;2023-08-06T11:34:50;13.20;;;12.50;;
1460;SDS011;724;49.910;12.530;2023-08-06T11:37:20;13.00;;;12.30;;
1460;SDS011;724;49.910;12.530;2023-08-06T11:39:49;13.10;;;12.40;;
1460;SDS011;724;49.910;12.530;2023-08-06T11:42:16;13.30;;;12.60;;
1460;SDS011;724;49.910;12.530;2023-08-06T11:44:43;12.90;;;12.20;;
1460;SDS011;724;49.910;12.530;2023-08-06T11:47:15;12.80;;;12.10;;
1460;SDS011;724;49.910;12.530;2023-08-06T11:49:44;12.90;;;12.20;;
1460;SDS011;724;49.910;12.530;2023-08-06T11:52:16;12.97;;;12.27;;
1460;SDS011;724;49.910;12.530;2023-08-06T11:54:44;13.40;;;12.70;;
1460;SDS011;724;49.910;12.530;2023-08-06T11:57:12;12.87;;;12.17;;
1460;SDS011;724;49.910;12.530;2023-08-06T11:59:39;12.80;;;12.10;;
1460;SDS011;724;49.910;12.530;2023-08-06T12:02:07;13.10;;;12.40;;
1460;SDS011;724;49.910;12.530;2023-08-06T12:07:30;13.30;;;12.60;;
1460;SDS011;724;49.910;12.530;2023-08-06T12:09:58;12.93;;;12.23;;
1460;SDS011;724;49.910;12.530;2023-08-06T12:12:25;13.47;;;12.77;;
1460;SDS011;724;49.910;12.530;2023-08-06T12:14:52;13.10;;;12.40;;
1460;SDS011;724;49.910;12.530;2023-08-06T12:17:20;12.90;;;12.20;;
1460;SDS011;724;49.910;12.530;2023-08-06T12:19:47;13.30;;;12.60;;
1460;SDS011;724;49.910;12.530;2023-08-06T12:22:15;13.10;;;12.40;;
1460;SDS011;724;49.910;12.530;2023-08-06T12:24:43;13.20;;;12.50;;
1460;SDS011;724;49.910;12.530;2023-08-06T12:27:11;13.30;;;12.60;;
1460;SDS011;724;49.910;12.530;2023-08-06T12:29:40;12.90;;;12.20;;
1460;SDS011;724;49.910;12.530;2023-08-06T12:32:07;12.77;;;12.07;;
1460;SDS011;724;49.910;12.530;2023-08-06T12:34:34;12.90;;;12.20;;
1460;SDS011;724;49.910;12.530;2023-08-06T12:37:01;13.10;;;12.40;;
1460;SDS011;724;49.910;12.530;2023-08-06T12:39:30;12.90;;;12.20;;
1460;SDS011;724;49.910;12.530;2023-08-06T12:41:57;12.30;;;11.70;;
1460;SDS011;724;49.910;12.530;2023-08-06T12:44:24;12.50;;;11.90;;
1460;SDS011;724;49.910;12.530;2023-08-06T12:46:51;12.50;;;11.90;;
1460;SDS011;724;49.910;12.530;2023-08-06T12:49:20;12.77;;;12.07;;
1460;SDS011;724;49.910;12.530;2023-08-06T12:51:47;12.93;;;12.23;;
1460;SDS011;724;49.910;12.530;2023-08-06T12:54:15;12.40;;;11.80;;
1460;SDS011;724;49.910;12.530;2023-08-06T12:56:44;13.07;;;12.37;;
1460;SDS011;724;49.910;12.530;2023-08-06T12:59:12;13.50;;;12.80;;
1460;SDS011;724;49.910;12.530;2023-08-06T13:01:39;13.70;;;13.00;;
1460;SDS011;724;49.910;12.530;2023-08-06T13:04:06;13.40;;;12.70;;
1460;SDS011;724;49.910;12.530;2023-08-06T13:06:33;13.80;;;13.10;;
1460;SDS011;724;49.910;12.530;2023-08-06T13:09:01;13.40;;;12.70;;
1460;SDS011;724;49.910;12.530;2023-08-06T13:11:29;13.17;;;12.47;;
1460;SDS011;724;49.910;12.530;2023-08-06T13:13:59;12.90;;;12.20;;
1460;SDS011;724;49.910;12.530;2023-08-06T13:16:31;12.50;;;11.90;;
1460;SDS011;724;49.910;12.530;2023-08-06T13:18:57;12.23;;;11.63;;
1460;SDS011;724;49.910;12.530;2023-08-06T13:21:30;11.90;;;11.30;;
1460;SDS011;724;49.910;12.530;2023-08-06T13:23:59;11.80;;;11.20;;
1460;SDS011;724;49.910;12.530;2023-08-06T13:26:26;11.70;;;11.10;;
1460;SDS011;724;49.910;12.530;2023-08-06T13:28:53;11.40;;;10.80;;
1460;SDS011;724;49.910;12.530;2023-08-06T13:31:21;11.40;;;10.80;;
1460;SDS011;724;49.910;12.530;2023-08-06T13:33:48;11.30;;;10.70;;
1460;SDS011;724;49.910;12.530;2023-08-06T13:36:15;11.43;;;10.83;;
1460;SDS011;724;49.910;12.530;2023-08-06T13:38:42;11.20;;;10.60;;
1460;SDS011;724;49.910;12.530;2023-08-06T13:41:09;11.33;;;10.73;;
1460;SDS011;724;49.910;12.530;2023-08-06T13:43:36;11.53;;;10.93;;
1460;SDS011;724;49.910;12.530;2023-08-06T13:46:02;11.70;;;11.10;;
1460;SDS011;724;49.910;12.530;2023-08-06T13:48:30;12.70;;;12.00;;
1460;SDS011;724;49.910;12.530;2023-08-06T13:50:57;12.30;;;11.70;;
1460;SDS011;724;49.910;12.530;2023-08-06T13:53:24;12.97;;;12.27;;
1460;SDS011;724;49.910;12.530;2023-08-06T13:55:55;12.50;;;11.90;;
1460;SDS011;724;49.910;12.530;2023-08-06T13:58:21;12.80;;;12.10;;
1460;SDS011;724;49.910;12.530;2023-08-06T14:00:48;12.40;;;11.80;;
1460;SDS011;724;49.910;12.530;2023-08-06T14:03:17;12.40;;;11.80;;
1460;SDS011;724;49.910;12.530;2023-08-06T14:05:46;12.80;;;12.10;;
1460;SDS011;724;49.910;12.530;2023-08-06T14:08:13;12.33;;;11.73;;
1460;SDS011;724;49.910;12.530;2023-08-06T14:10:40;12.40;;;11.80;;
1460;SDS011;724;49.910;12.530;2023-08-06T14:13:06;11.80;;;11.20;;
1460;SDS011;724;49.910;12.530;2023-08-06T14:15:33;11.30;;;10.70;;
1460;SDS011;724;49.910;12.530;2023-08-06T14:18:00;11.00;;;10.40;;
1460;SDS011;724;49.910;12.530;2023-08-06T14:20:27;10.47;;;9.93;;
1460;SDS011;724;49.910;12.530;2023-08-06T14:22:55;10.00;;;9.50;;
1460;SDS011;724;49.910;12.530;2023-08-06T14:25:22;10.00;;;9.50;;
1460;SDS011;724;49.910;12.530;2023-08-06T14:27:49;10.63;;;10.03;;
1460;SDS011;724;49.910;12.530;2023-08-06T14:30:16;10.40;;;9.90;;
1460;SDS011;724;49.910;12.530;2023-08-06T14:32:43;10.03;;;9.53;;
1460;SDS011;724;49.910;12.530;2023-08-06T14:35:10;10.40;;;9.90;;
1460;SDS011;724;49.910;12.530;2023-08-06T14:37:37;10.00;;;9.50;;
1460;SDS011;724;49.910;12.530;2023-08-06T14:40:06;10.60;;;10.00;;
1460;SDS011;724;49.910;12.530;2023-08-06T14:42:34;11.10;;;10.50;;
1460;SDS011;724;49.910;12.530;2023-08-06T14:45:00;11.40;;;10.80;;
1460;SDS011;724;49.910;12.530;2023-08-06T14:47:27;11.60;;;11.00;;
1460;SDS011;724;49.910;12.530;2023-08-06T14:49:54;11.40;;;10.80;;
1460;SDS011;724;49.910;12.530;2023-08-06T14:52:21;11.13;;;10.53;;
1460;SDS011;724;49.910;12.530;2023-08-06T14:54:47;10.70;;;10.10;;
1460;SDS011;724;49.910;12.530;2023-08-06T14:57:18;10.10;;;9.60;;
1460;SDS011;724;49.910;12.530;2023-08-06T14:59:46;10.03;;;9.53;;
1460;SDS011;724;49.910;12.530;2023-08-06T15:02:14;10.10;;;9.60;;
1460;SDS011;724;49.910;12.530;2023-08-06T15:04:41;9.90;;;9.40;;
1460;SDS011;724;49.910;12.530;2023-08-06T15:07:08;9.80;;;9.30;;
1460;SDS011;724;49.910;12.530;2023-08-06T15:09:35;9.50;;;9.00;;
1460;SDS011;724;49.910;12.530;2023-08-06T15:12:02;8.90;;;8.40;;
1460;SDS011;724;49.910;12.530;2023-08-06T15:14:31;8.30;;;7.90;;
1460;SDS011;724;49.910;12.530;2023-08-06T15:16:58;7.00;;;6.60;;
1460;SDS011;724;49.910;12.530;2023-08-06T15:19:25;6.00;;;5.70;;
1460;SDS011;724;49.910;12.530;2023-08-06T15:21:52;7.10;;;6.70;;
1460;SDS011;724;49.910;12.530;2023-08-06T15:24:20;6.60;;;6.20;;
1460;SDS011;724;49.910;12.530;2023-08-06T15:26:47;5.30;;;5.00;;
1460;SDS011;724;49.910;12.530;2023-08-06T15:29:14;4.10;;;3.90;;
1460;SDS011;724;49.910;12.530;2023-08-06T15:31:42;4.00;;;3.80;;
1460;SDS011;724;49.910;12.530;2023-08-06T15:34:10;4.57;;;4.27;;
1460;SDS011;724;49.910;12.530;2023-08-06T15:36:36;3.60;;;3.40;;
1460;SDS011;724;49.910;12.530;2023-08-06T15:39:04;3.60;;;3.40;;
1460;SDS011;724;49.910;12.530;2023-08-06T15:41:31;3.20;;;3.00;;